Harwich Port, MA (02646)

1:03 AM EST on December 03, 2016 (GMT -0500)
Allen Harbor Yacht Club | | Change Station

Elev 15 ft 41.67 °N, 70.09 °W | Updated 12 seconds ago

Overcast
Overcast
42.1 °F
Feels Like 36 °F
N
10.9
Wind Variable Wind from West
Gusts 19.6 mph

Today
High -- | Low -- °F
--% Chance of Precip.
Yesterday
High -- | Low -- °F
Precip. -- in
Pressure 29.75 in
Visibility 10.0 miles
Clouds Overcast 10000 ft
Windchill 36 °F
Dew Point 33 °F
Humidity 69%
Rainfall 0.00 in
Snow Depth Not available.
6:50 AM 4:10 PM
Waxing Crescent, 12% visible
METAR KCQX 030552Z AUTO 26009G15KT 10SM OVC100 06/M01 A2974 RMK AO2 SLP073 T00561011 10067 20050 58005
Pressure 29.75 in
Visibility 10.0 miles
Clouds Overcast 10000 ft
Windchill 36 °F
Dew Point 33 °F
Humidity 69%
Rainfall 0.00 in
Snow Depth Not available.
6:50 AM 4:10 PM
Waxing Crescent, 12% visible
METAR KCQX 030552Z AUTO 26009G15KT 10SM OVC100 06/M01 A2974 RMK AO2 SLP073 T00561011 10067 20050 58005

10-Day Weather Forecast

Almanac

Astronomy

Dec. 03, 2016 Rise Set
Actual Time
Civil Twilight
Nautical Twilight
Astronomical Twilight
Moon
Length of Visible Light
Length of Day
Tomorrow will be .
, % of the Moon is Illuminated

Today's Extremes

State Highs State Lows

Community

WunderPhotos

Upload Photos

1,955,432 photos uploaded!

WunderBlog® & News

Nearby

Air Quality

  Air Quality AQ Index Pollutant
Not available.

Snow Depth

Station Depth Elevation

Earthquake Activity

City Distance Mag. Time & Date
Minimum magnitude displayed is 2.5.

Coastal Water Temperatures

Place Temperature

Stations

Nearby Weather Stations

Station Location Temp. Windchill Dew Point Humidity Wind Precip. Elev Updated Type
                   

Watches & Warnings

There are currently no watches in effect.